Time;durP1;ratioP1;P1;durP2;ratioP2;P2;SDS_P1;SDS_P2;PMS_P1;PMS_P2;Temp;Humidity;BMP_temperature;BMP_pressure;BME280_temperature;BME280_humidity;BME280_pressure;Samples;Min_cycle;Max_cycle;Signal;HPM_P1;HPM_P2
2022/05/16 00:00:05;;;;;;;4.40;3.97;;;;;;;;;;5061735;28;24495;-44
2022/05/16 00:02:30;;;;;;;4.63;3.83;;;;;;;;;;5063064;28;24431;-44
2022/05/16 00:04:55;;;;;;;5.20;3.97;;;;;;;;;;5061269;28;24438;-45
2022/05/16 00:07:21;;;;;;;4.40;4.10;;;;;;;;;;5061979;28;24418;-43
2022/05/16 00:09:46;;;;;;;6.40;4.50;;;;;;;;;;5063246;28;24527;-44
2022/05/16 00:12:12;;;;;;;4.28;3.70;;;;;;;;;;5058078;28;24423;-44
2022/05/16 00:14:38;;;;;;;5.63;4.78;;;;;;;;;;5063429;28;24476;-44
2022/05/16 00:17:03;;;;;;;5.20;4.22;;;;;;;;;;5062082;28;24958;-48
2022/05/16 00:19:29;;;;;;;5.30;4.80;;;;;;;;;;5056397;28;24427;-44
2022/05/16 00:21:54;;;;;;;4.30;3.90;;;;;;;;;;5058858;28;24430;-44
2022/05/16 00:24:24;;;;;;;4.30;4.00;;;;;;;;;;5080733;28;24426;-44
2022/05/16 00:26:49;;;;;;;5.55;4.45;;;;;;;;;;5066670;28;24429;-44
2022/05/16 00:29:14;;;;;;;4.67;4.10;;;;;;;;;;5059549;28;24423;-44
2022/05/16 00:31:39;;;;;;;5.28;4.10;;;;;;;;;;5060957;28;24463;-44
2022/05/16 00:34:04;;;;;;;4.88;4.13;;;;;;;;;;5059191;28;24956;-44
2022/05/16 00:36:29;;;;;;;4.72;4.30;;;;;;;;;;5060651;28;24425;-44
2022/05/16 00:38:55;;;;;;;4.30;3.90;;;;;;;;;;5060009;28;24482;-44
2022/05/16 00:41:20;;;;;;;5.00;4.30;;;;;;;;;;5066734;28;25422;-44
2022/05/16 00:43:45;;;;;;;4.80;4.40;;;;;;;;;;5076330;28;24433;-44
2022/05/16 00:46:11;;;;;;;4.60;4.20;;;;;;;;;;5064653;28;24510;-44
2022/05/16 00:48:36;;;;;;;5.53;4.57;;;;;;;;;;5081318;28;24987;-44
2022/05/16 00:51:01;;;;;;;5.20;3.83;;;;;;;;;;5067461;28;24458;-44
2022/05/16 00:53:27;;;;;;;4.67;4.23;;;;;;;;;;5064191;28;24434;-44
2022/05/16 00:55:52;;;;;;;5.30;4.40;;;;;;;;;;5054806;28;24424;-46
2022/05/16 00:58:19;;;;;;;4.20;3.80;;;;;;;;;;5062062;28;24430;-44
2022/05/16 01:00:45;;;;;;;5.32;4.10;;;;;;;;;;5054713;28;24794;-44
2022/05/16 01:05:56;;;;;;;4.63;3.90;;;;;;;;;;5064602;28;24437;-44
2022/05/16 01:08:25;;;;;;;4.97;3.85;;;;;;;;;;5073036;28;24536;-44
2022/05/16 01:10:51;;;;;;;4.80;4.40;;;;;;;;;;5066079;28;25605;-43
2022/05/16 01:13:16;;;;;;;5.13;3.90;;;;;;;;;;5055768;28;24411;-44
2022/05/16 01:15:43;;;;;;;4.40;3.90;;;;;;;;;;5065157;28;24487;-50
2022/05/16 01:18:09;;;;;;;4.57;3.92;;;;;;;;;;5075385;28;24451;-44
2022/05/16 01:20:43;;;;;;;4.97;4.07;;;;;;;;;;5060171;28;24474;-44
2022/05/16 01:23:08;;;;;;;4.10;3.80;;;;;;;;;;5057243;28;24498;-44
2022/05/16 01:25:34;;;;;;;4.65;4.15;;;;;;;;;;5070317;28;24448;-44
2022/05/16 01:28:04;;;;;;;5.40;4.10;;;;;;;;;;5055001;28;24956;-44
2022/05/16 01:30:50;;;;;;;5.10;4.45;;;;;;;;;;5058368;28;24439;-44
2022/05/16 01:33:19;;;;;;;4.65;4.25;;;;;;;;;;5058996;28;24790;-44
2022/05/16 01:35:45;;;;;;;4.57;4.00;;;;;;;;;;5064485;28;24423;-44
2022/05/16 01:38:19;;;;;;;6.60;4.37;;;;;;;;;;5058834;28;24866;-44
2022/05/16 01:40:44;;;;;;;5.93;4.20;;;;;;;;;;5063110;28;24446;-44
2022/05/16 01:43:10;;;;;;;4.95;4.30;;;;;;;;;;5066174;28;24411;-45
2022/05/16 01:45:36;;;;;;;4.60;4.20;;;;;;;;;;5067076;28;24485;-45
2022/05/16 01:48:01;;;;;;;5.45;4.32;;;;;;;;;;5068199;28;24426;-44
2022/05/16 01:50:27;;;;;;;4.28;3.75;;;;;;;;;;5059366;28;24474;-45
2022/05/16 01:52:52;;;;;;;5.10;4.33;;;;;;;;;;5057865;28;24565;-45
2022/05/16 01:55:17;;;;;;;4.78;4.30;;;;;;;;;;5050774;28;24426;-44
2022/05/16 01:57:42;;;;;;;4.77;4.37;;;;;;;;;;5065447;28;24452;-44
2022/05/16 02:00:09;;;;;;;5.67;4.33;;;;;;;;;;5067412;28;24569;-45
2022/05/16 02:02:34;;;;;;;4.80;4.30;;;;;;;;;;5061420;28;24820;-45
2022/05/16 02:04:59;;;;;;;5.80;4.20;;;;;;;;;;5062278;28;24448;-45
2022/05/16 02:07:24;;;;;;;5.22;4.72;;;;;;;;;;5073664;28;24418;-45
2022/05/16 02:09:50;;;;;;;4.90;4.50;;;;;;;;;;5064244;28;24438;-45
2022/05/16 02:12:15;;;;;;;5.70;4.87;;;;;;;;;;5063999;28;24411;-45
2022/05/16 02:14:40;;;;;;;5.38;4.88;;;;;;;;;;5051436;28;24525;-45
2022/05/16 02:17:05;;;;;;;4.80;4.30;;;;;;;;;;5064146;28;24877;-44
2022/05/16 02:19:30;;;;;;;5.82;4.40;;;;;;;;;;5057888;28;24514;-43
2022/05/16 02:24:39;;;;;;;4.70;4.30;;;;;;;;;;5058251;28;24569;-44
2022/05/16 02:27:08;;;;;;;5.22;4.70;;;;;;;;;;5065105;28;24533;-44
2022/05/16 02:29:34;;;;;;;5.20;4.80;;;;;;;;;;5061277;28;24450;-44
2022/05/16 02:32:00;;;;;;;5.20;4.80;;;;;;;;;;5053529;28;24423;-44
2022/05/16 02:34:25;;;;;;;5.10;4.60;;;;;;;;;;5059328;28;24426;-44
2022/05/16 02:36:52;;;;;;;4.93;4.53;;;;;;;;;;5059876;28;24419;-44
2022/05/16 02:39:17;;;;;;;5.25;4.57;;;;;;;;;;5063628;28;24423;-44
2022/05/16 02:41:43;;;;;;;5.30;4.80;;;;;;;;;;5060757;28;24434;-44
2022/05/16 02:44:08;;;;;;;6.18;4.20;;;;;;;;;;5054500;28;24419;-45
2022/05/16 02:46:33;;;;;;;5.00;4.60;;;;;;;;;;5052710;28;25158;-45
2022/05/16 02:48:58;;;;;;;5.00;4.60;;;;;;;;;;5053608;28;24426;-45
2022/05/16 02:51:24;;;;;;;5.63;5.13;;;;;;;;;;5061581;28;24933;-44
2022/05/16 02:53:49;;;;;;;5.83;5.23;;;;;;;;;;5060065;28;25075;-45
2022/05/16 02:56:15;;;;;;;4.87;4.47;;;;;;;;;;5043578;28;24419;-45
2022/05/16 02:58:40;;;;;;;5.20;4.70;;;;;;;;;;5052442;28;24434;-45
2022/05/16 03:01:06;;;;;;;5.10;4.60;;;;;;;;;;5056491;28;24506;-45
2022/05/16 03:03:32;;;;;;;5.30;4.80;;;;;;;;;;5062015;28;24419;-45
2022/05/16 03:05:57;;;;;;;5.25;4.75;;;;;;;;;;5059280;28;24425;-45
2022/05/16 03:08:23;;;;;;;5.20;4.70;;;;;;;;;;5053783;28;24419;-45
2022/05/16 03:10:48;;;;;;;5.35;4.93;;;;;;;;;;5054739;28;24476;-45
2022/05/16 03:13:13;;;;;;;5.00;4.60;;;;;;;;;;5052642;28;24427;-45
2022/05/16 03:15:38;;;;;;;4.90;4.40;;;;;;;;;;5062612;28;24426;-45
2022/05/16 03:18:04;;;;;;;5.17;4.67;;;;;;;;;;5046800;28;24790;-45
2022/05/16 03:20:29;;;;;;;5.80;4.80;;;;;;;;;;5052356;28;24458;-45
2022/05/16 03:22:54;;;;;;;6.20;4.60;;;;;;;;;;5054630;28;24426;-45
2022/05/16 03:25:19;;;;;;;5.90;4.73;;;;;;;;;;5077364;28;24418;-45
2022/05/16 03:27:44;;;;;;;6.77;4.90;;;;;;;;;;5063244;28;24426;-45
2022/05/16 03:30:10;;;;;;;5.43;4.90;;;;;;;;;;5052881;28;24443;-45
2022/05/16 03:32:35;;;;;;;6.00;5.40;;;;;;;;;;5063185;28;24994;-46
2022/05/16 03:35:00;;;;;;;5.93;5.33;;;;;;;;;;5050532;28;24422;-44
2022/05/16 03:37:26;;;;;;;5.60;5.10;;;;;;;;;;5062674;28;24472;-45
2022/05/16 03:42:35;;;;;;;6.05;4.93;;;;;;;;;;5064232;28;24453;-45
2022/05/16 03:45:01;;;;;;;5.87;5.27;;;;;;;;;;5049982;28;24411;-44
2022/05/16 03:47:26;;;;;;;6.00;5.40;;;;;;;;;;5063128;28;24418;-44
2022/05/16 03:49:52;;;;;;;5.47;4.97;;;;;;;;;;5063663;28;24434;-45
2022/05/16 03:52:17;;;;;;;5.70;5.20;;;;;;;;;;5048564;28;24523;-45
2022/05/16 03:54:43;;;;;;;5.35;4.78;;;;;;;;;;5060773;28;24512;-44
2022/05/16 03:57:08;;;;;;;5.10;4.70;;;;;;;;;;5055580;28;24977;-45
2022/05/16 03:59:33;;;;;;;5.00;4.60;;;;;;;;;;5062538;28;24427;-44
2022/05/16 04:01:58;;;;;;;5.45;4.90;;;;;;;;;;5072706;28;24427;-45
2022/05/16 04:04:24;;;;;;;4.90;4.40;;;;;;;;;;5066875;28;24460;-45
2022/05/16 04:06:49;;;;;;;5.63;5.13;;;;;;;;;;5066443;28;24402;-46
2022/05/16 04:09:14;;;;;;;5.50;5.00;;;;;;;;;;5066703;28;25028;-45
2022/05/16 04:11:39;;;;;;;6.07;5.05;;;;;;;;;;5067286;28;24497;-45
2022/05/16 04:14:05;;;;;;;5.50;4.50;;;;;;;;;;5061787;28;24489;-45
2022/05/16 04:16:31;;;;;;;5.70;5.10;;;;;;;;;;5065383;28;25011;-45
2022/05/16 04:18:56;;;;;;;6.53;5.80;;;;;;;;;;5069776;28;24394;-45
2022/05/16 04:21:21;;;;;;;5.83;5.23;;;;;;;;;;5050072;28;24922;-49
2022/05/16 04:23:46;;;;;;;6.32;4.35;;;;;;;;;;5052527;28;24537;-45
2022/05/16 04:26:12;;;;;;;4.60;4.20;;;;;;;;;;5088363;28;24433;-45
2022/05/16 04:28:37;;;;;;;4.63;4.13;;;;;;;;;;5082477;28;24509;-46
2022/05/16 04:31:02;;;;;;;4.97;4.47;;;;;;;;;;5059121;28;24988;-45
2022/05/16 04:33:27;;;;;;;4.97;4.00;;;;;;;;;;5069576;28;24479;-46
2022/05/16 04:35:52;;;;;;;5.57;5.00;;;;;;;;;;5074543;28;24534;-46
2022/05/16 04:38:18;;;;;;;5.18;4.70;;;;;;;;;;5055547;28;24454;-46
2022/05/16 04:43:27;;;;;;;4.20;3.75;;;;;;;;;;5064486;28;24390;-45
2022/05/16 04:45:52;;;;;;;4.40;4.00;;;;;;;;;;5060545;28;24422;-45
2022/05/16 04:48:17;;;;;;;4.37;3.97;;;;;;;;;;5070133;28;24432;-46
2022/05/16 04:50:42;;;;;;;5.30;3.73;;;;;;;;;;5073202;28;25173;-46
2022/05/16 04:53:08;;;;;;;4.35;3.95;;;;;;;;;;5065772;28;24418;-46
2022/05/16 04:55:33;;;;;;;4.20;3.80;;;;;;;;;;5065702;28;24423;-45
2022/05/16 04:57:58;;;;;;;5.00;3.80;;;;;;;;;;5063902;28;24426;-46
2022/05/16 05:00:24;;;;;;;5.15;3.47;;;;;;;;;;5064369;28;24484;-46
2022/05/16 05:02:50;;;;;;;4.68;3.80;;;;;;;;;;5060689;28;24458;-44
2022/05/16 05:05:15;;;;;;;4.20;3.80;;;;;;;;;;5065253;28;24571;-45
2022/05/16 05:07:40;;;;;;;3.80;3.50;;;;;;;;;;5052307;28;24458;-44
2022/05/16 05:15:38;;;;;;;4.03;3.50;;;;;;;;;;5055471;28;24472;-44
2022/05/16 05:18:04;;;;;;;5.70;4.00;;;;;;;;;;5057696;28;24487;-44
2022/05/16 05:20:29;;;;;;;4.05;3.65;;;;;;;;;;5049271;28;24438;-45
2022/05/16 05:22:54;;;;;;;4.27;3.40;;;;;;;;;;5062286;28;24508;-45
2022/05/16 05:25:20;;;;;;;4.87;3.30;;;;;;;;;;5064860;28;24449;-45
2022/05/16 05:27:46;;;;;;;5.10;3.70;;;;;;;;;;5056566;28;24439;-44
2022/05/16 05:30:13;;;;;;;5.05;3.35;;;;;;;;;;5069681;28;24865;-44
2022/05/16 05:32:38;;;;;;;3.80;3.40;;;;;;;;;;5088729;28;24454;-45
2022/05/16 05:35:04;;;;;;;3.67;3.33;;;;;;;;;;5088993;28;24409;-44
2022/05/16 05:37:30;;;;;;;3.30;3.00;;;;;;;;;;5081570;28;24498;-45
2022/05/16 05:39:58;;;;;;;5.18;3.00;;;;;;;;;;5077601;28;24460;-45
2022/05/16 05:42:24;;;;;;;5.80;3.40;;;;;;;;;;5088720;28;24437;-45
2022/05/16 05:44:49;;;;;;;4.30;3.80;;;;;;;;;;5088539;28;24409;-45
2022/05/16 05:47:14;;;;;;;4.93;3.42;;;;;;;;;;5086022;28;24459;-45
2022/05/16 05:49:39;;;;;;;3.70;3.40;;;;;;;;;;5086769;28;24433;-45
2022/05/16 05:52:04;;;;;;;5.03;3.30;;;;;;;;;;5088380;28;24409;-45
2022/05/16 05:54:30;;;;;;;4.00;3.57;;;;;;;;;;5057157;28;24941;-45
2022/05/16 05:56:55;;;;;;;3.70;3.40;;;;;;;;;;5049432;28;24998;-45
2022/05/16 05:59:20;;;;;;;4.30;3.60;;;;;;;;;;5056570;28;25102;-44
2022/05/16 06:01:46;;;;;;;3.77;3.10;;;;;;;;;;5057147;28;24453;-44
2022/05/16 06:04:11;;;;;;;4.23;3.20;;;;;;;;;;5060077;28;24431;-45
2022/05/16 06:06:36;;;;;;;5.90;3.90;;;;;;;;;;5058086;28;24442;-44
2022/05/16 06:09:02;;;;;;;4.97;3.50;;;;;;;;;;5064112;28;24423;-45
2022/05/16 06:11:28;;;;;;;4.75;3.70;;;;;;;;;;5062810;28;24513;-44
2022/05/16 06:13:53;;;;;;;5.63;4.00;;;;;;;;;;5068331;28;24399;-45
2022/05/16 06:16:18;;;;;;;7.07;4.30;;;;;;;;;;5066723;28;24449;-44
2022/05/16 06:18:44;;;;;;;5.45;4.25;;;;;;;;;;5061429;28;24492;-50
2022/05/16 06:21:09;;;;;;;5.65;3.83;;;;;;;;;;5048992;28;24434;-45
2022/05/16 06:23:34;;;;;;;4.50;3.80;;;;;;;;;;5050092;28;24415;-44
2022/05/16 06:26:00;;;;;;;5.27;3.40;;;;;;;;;;5048286;28;24948;-45
2022/05/16 06:28:26;;;;;;;3.73;3.40;;;;;;;;;;5053803;28;24423;-45
2022/05/16 06:30:52;;;;;;;4.05;3.65;;;;;;;;;;5074654;28;24537;-45
2022/05/16 06:33:18;;;;;;;4.05;3.65;;;;;;;;;;5086314;28;24434;-46
2022/05/16 06:35:44;;;;;;;4.25;3.83;;;;;;;;;;5071245;28;24781;-45
2022/05/16 06:38:16;;;;;;;4.10;3.67;;;;;;;;;;5051522;28;24421;-45
2022/05/16 06:40:43;;;;;;;4.00;3.60;;;;;;;;;;5062240;28;24411;-46
2022/05/16 06:43:08;;;;;;;4.30;3.60;;;;;;;;;;5059998;28;24435;-46
2022/05/16 06:45:34;;;;;;;4.78;3.80;;;;;;;;;;5046091;28;24855;-45
2022/05/16 06:47:59;;;;;;;6.23;3.43;;;;;;;;;;5047227;28;24788;-45
2022/05/16 06:50:24;;;;;;;4.50;3.60;;;;;;;;;;5050645;28;24960;-45
2022/05/16 06:52:49;;;;;;;3.90;3.50;;;;;;;;;;5067365;28;24836;-45
2022/05/16 06:55:15;;;;;;;3.53;3.23;;;;;;;;;;5067183;28;24448;-45
2022/05/16 06:57:40;;;;;;;3.60;3.10;;;;;;;;;;5067011;28;24984;-45
2022/05/16 07:00:06;;;;;;;3.83;3.13;;;;;;;;;;5066955;28;24406;-45
2022/05/16 07:02:32;;;;;;;3.85;3.20;;;;;;;;;;5079557;28;24417;-46
2022/05/16 07:04:57;;;;;;;4.55;3.30;;;;;;;;;;5087818;28;24417;-46
2022/05/16 07:07:22;;;;;;;3.63;3.22;;;;;;;;;;5087404;28;24955;-46
2022/05/16 07:09:48;;;;;;;4.57;3.30;;;;;;;;;;5086764;28;24442;-46
2022/05/16 07:12:13;;;;;;;4.03;3.60;;;;;;;;;;5073605;28;24431;-45
2022/05/16 07:14:38;;;;;;;3.72;3.30;;;;;;;;;;5066644;28;24403;-45
2022/05/16 07:17:04;;;;;;;5.90;3.30;;;;;;;;;;5067050;28;24939;-45
2022/05/16 07:19:31;;;;;;;5.07;3.30;;;;;;;;;;5066840;28;24390;-45
2022/05/16 07:21:56;;;;;;;4.18;3.10;;;;;;;;;;5066824;28;24475;-45
2022/05/16 07:24:21;;;;;;;4.88;3.45;;;;;;;;;;5075354;28;24529;-45
2022/05/16 07:29:31;;;;;;;4.75;3.20;;;;;;;;;;5082981;28;24567;-45
2022/05/16 07:31:57;;;;;;;5.30;3.40;;;;;;;;;;5084319;28;24475;-45
2022/05/16 07:34:22;;;;;;;4.00;3.30;;;;;;;;;;5083446;28;24444;-45
2022/05/16 07:36:48;;;;;;;3.70;3.08;;;;;;;;;;5064714;28;24383;-45
2022/05/16 07:39:13;;;;;;;4.15;3.33;;;;;;;;;;5066220;28;24401;-44
2022/05/16 07:41:38;;;;;;;5.80;3.90;;;;;;;;;;5086961;28;24935;-45
2022/05/16 07:44:04;;;;;;;4.87;3.00;;;;;;;;;;5085876;28;24499;-46
2022/05/16 07:46:29;;;;;;;4.03;3.20;;;;;;;;;;5087199;28;24548;-45
2022/05/16 07:48:54;;;;;;;5.10;3.50;;;;;;;;;;5091004;28;24409;-45
2022/05/16 07:51:19;;;;;;;5.20;3.10;;;;;;;;;;5073708;28;24852;-45
2022/05/16 07:53:44;;;;;;;4.13;3.42;;;;;;;;;;5070287;28;24382;-45
2022/05/16 07:56:09;;;;;;;3.80;3.50;;;;;;;;;;5070436;28;25001;-44
2022/05/16 07:58:35;;;;;;;4.63;3.17;;;;;;;;;;5070149;28;24822;-45
2022/05/16 08:01:00;;;;;;;3.90;2.90;;;;;;;;;;5070214;28;24835;-44
2022/05/16 08:03:26;;;;;;;3.20;2.90;;;;;;;;;;5068589;28;24478;-44
2022/05/16 08:05:51;;;;;;;3.80;3.03;;;;;;;;;;5070138;28;25018;-44
2022/05/16 08:11:01;;;;;;;3.70;3.30;;;;;;;;;;5059789;28;24497;-45
2022/05/16 08:13:27;;;;;;;6.05;3.45;;;;;;;;;;5070831;28;25003;-45
2022/05/16 08:15:52;;;;;;;4.67;3.20;;;;;;;;;;5069517;28;24837;-45
2022/05/16 08:18:18;;;;;;;4.70;3.33;;;;;;;;;;5070366;28;24509;-45
2022/05/16 08:20:43;;;;;;;4.40;3.40;;;;;;;;;;5049303;28;24422;-45
2022/05/16 08:23:10;;;;;;;3.67;3.38;;;;;;;;;;5048286;28;24613;-45
2022/05/16 08:25:35;;;;;;;3.70;3.23;;;;;;;;;;5049870;28;24411;-44
2022/05/16 08:28:01;;;;;;;3.87;3.40;;;;;;;;;;5062561;28;24415;-44
2022/05/16 08:30:26;;;;;;;4.88;3.60;;;;;;;;;;5069258;28;24442;-45
2022/05/16 08:32:51;;;;;;;4.33;3.27;;;;;;;;;;5070069;28;24490;-44
2022/05/16 08:35:18;;;;;;;4.22;3.60;;;;;;;;;;5069605;28;25038;-45
2022/05/16 08:40:37;;;;;;;4.43;3.40;;;;;;;;;;5066901;28;24488;-45
2022/05/16 08:43:09;;;;;;;3.58;3.28;;;;;;;;;;5070098;28;24391;-45
2022/05/16 08:45:34;;;;;;;5.78;2.83;;;;;;;;;;5069541;28;24490;-45
2022/05/16 08:48:08;;;;;;;3.50;3.20;;;;;;;;;;5069641;28;24852;-45
2022/05/16 08:50:37;;;;;;;5.63;3.50;;;;;;;;;;5069316;28;24504;-44
2022/05/16 08:53:05;;;;;;;4.85;3.30;;;;;;;;;;5068974;28;24434;-44
2022/05/16 08:55:39;;;;;;;3.70;3.20;;;;;;;;;;5069726;28;24635;-44
2022/05/16 08:58:14;;;;;;;5.20;3.70;;;;;;;;;;5068969;28;24975;-45
2022/05/16 09:00:51;;;;;;;4.40;3.10;;;;;;;;;;5068990;28;24444;-45
2022/05/16 09:03:22;;;;;;;3.47;3.17;;;;;;;;;;5067866;28;24730;-45
2022/05/16 09:05:51;;;;;;;5.75;3.50;;;;;;;;;;5089229;28;24397;-45
2022/05/16 09:08:25;;;;;;;5.00;3.20;;;;;;;;;;5089642;28;24410;-45
2022/05/16 09:10:55;;;;;;;4.10;3.70;;;;;;;;;;5089798;28;24406;-44
2022/05/16 09:13:30;;;;;;;5.40;3.20;;;;;;;;;;5089391;28;24955;-44
2022/05/16 09:16:02;;;;;;;6.13;3.90;;;;;;;;;;5087015;28;24531;-44
2022/05/16 09:18:46;;;;;;;4.80;3.50;;;;;;;;;;5089402;28;24386;-45
2022/05/16 09:21:19;;;;;;;6.43;3.85;;;;;;;;;;5087203;28;24922;-44
2022/05/16 09:24:04;;;;;;;4.20;3.10;;;;;;;;;;5088957;28;24411;-45
2022/05/16 09:26:35;;;;;;;5.37;3.70;;;;;;;;;;5069256;28;24417;-44
2022/05/16 09:29:07;;;;;;;4.18;3.75;;;;;;;;;;5081395;28;24422;-45
2022/05/16 09:31:40;;;;;;;3.50;3.20;;;;;;;;;;5087353;28;24432;-45
2022/05/16 09:34:07;;;;;;;4.47;3.38;;;;;;;;;;5068988;28;24379;-45
2022/05/16 09:36:34;;;;;;;5.88;3.70;;;;;;;;;;5067949;28;24959;-45
2022/05/16 09:39:00;;;;;;;6.27;3.90;;;;;;;;;;5064353;28;25393;-45
2022/05/16 09:41:34;;;;;;;4.77;3.30;;;;;;;;;;5064702;28;24450;-44
2022/05/16 09:44:04;;;;;;;6.30;3.72;;;;;;;;;;5068766;28;24414;-43
2022/05/16 09:46:37;;;;;;;4.50;3.22;;;;;;;;;;5068249;28;24452;-44
2022/05/16 09:49:07;;;;;;;3.97;3.30;;;;;;;;;;5067919;28;24449;-43
2022/05/16 09:51:47;;;;;;;5.43;3.20;;;;;;;;;;5067641;28;24498;-44
2022/05/16 09:54:30;;;;;;;4.25;3.30;;;;;;;;;;5068111;28;24494;-43
2022/05/16 09:56:57;;;;;;;5.20;3.50;;;;;;;;;;5067928;28;24407;-43
2022/05/16 09:59:40;;;;;;;4.07;3.60;;;;;;;;;;5065687;28;24414;-43
2022/05/16 10:02:28;;;;;;;6.97;3.63;;;;;;;;;;5065180;28;24446;-43
2022/05/16 10:04:56;;;;;;;4.85;3.10;;;;;;;;;;5059508;28;24415;-44
2022/05/16 10:07:22;;;;;;;3.80;3.20;;;;;;;;;;5067632;28;25183;-43
2022/05/16 10:09:50;;;;;;;4.25;3.58;;;;;;;;;;5066623;28;24418;-44
2022/05/16 10:12:16;;;;;;;5.57;3.50;;;;;;;;;;5067444;28;24507;-44
2022/05/16 10:14:42;;;;;;;4.43;3.30;;;;;;;;;;5066404;28;24986;-45
2022/05/16 10:17:09;;;;;;;4.32;3.40;;;;;;;;;;5068001;28;24436;-46
2022/05/16 10:19:37;;;;;;;5.95;3.60;;;;;;;;;;5067076;28;24499;-45
2022/05/16 10:22:07;;;;;;;4.57;3.88;;;;;;;;;;5067513;28;24988;-44
2022/05/16 10:24:35;;;;;;;5.50;3.90;;;;;;;;;;5067679;28;24471;-44
2022/05/16 10:27:06;;;;;;;4.18;3.40;;;;;;;;;;5067121;28;24430;-45
2022/05/16 10:29:34;;;;;;;4.80;3.30;;;;;;;;;;5067476;28;24477;-44
2022/05/16 10:35:10;;;;;;;4.47;3.50;;;;;;;;;;5067847;28;25046;-44
2022/05/16 10:37:37;;;;;;;4.40;3.90;;;;;;;;;;5067487;28;24415;-44
2022/05/16 10:40:06;;;;;;;5.28;3.40;;;;;;;;;;5067393;28;24424;-44
2022/05/16 10:42:46;;;;;;;7.07;3.60;;;;;;;;;;5067442;28;24429;-45
2022/05/16 10:45:18;;;;;;;3.40;3.10;;;;;;;;;;5067483;28;24382;-44
2022/05/16 10:47:50;;;;;;;4.55;3.45;;;;;;;;;;5067115;28;24433;-45
2022/05/16 10:50:23;;;;;;;4.85;3.90;;;;;;;;;;5065612;28;24469;-46
2022/05/16 10:52:51;;;;;;;5.95;3.70;;;;;;;;;;5087153;28;24799;-44
2022/05/16 10:55:16;;;;;;;5.10;3.80;;;;;;;;;;5087754;28;24398;-43
2022/05/16 10:57:55;;;;;;;4.60;3.80;;;;;;;;;;5087135;28;24471;-44
2022/05/16 11:00:24;;;;;;;6.30;3.70;;;;;;;;;;5085281;28;24808;-44
2022/05/16 11:03:03;;;;;;;4.30;3.90;;;;;;;;;;5067296;28;24534;-44
2022/05/16 11:05:38;;;;;;;5.55;4.00;;;;;;;;;;5067340;28;24386;-44
2022/05/16 11:08:10;;;;;;;4.32;3.92;;;;;;;;;;5067331;28;24460;-43
2022/05/16 11:10:39;;;;;;;4.68;3.70;;;;;;;;;;5066972;28;24546;-44
2022/05/16 11:13:22;;;;;;;4.65;3.70;;;;;;;;;;5080753;28;25017;-44
2022/05/16 11:15:51;;;;;;;4.07;3.70;;;;;;;;;;5087104;28;24428;-44
2022/05/16 11:18:36;;;;;;;4.60;3.80;;;;;;;;;;5086777;28;24925;-43
2022/05/16 11:21:19;;;;;;;4.60;3.10;;;;;;;;;;5086056;28;24952;-44
2022/05/16 11:23:58;;;;;;;4.82;3.50;;;;;;;;;;5083270;28;24840;-44
2022/05/16 11:26:27;;;;;;;4.50;3.78;;;;;;;;;;5086736;28;24493;-45
2022/05/16 11:31:53;;;;;;;4.20;3.80;;;;;;;;;;5066585;28;24551;-44
2022/05/16 11:34:27;;;;;;;5.60;4.00;;;;;;;;;;5066256;28;24433;-44
2022/05/16 11:37:00;;;;;;;5.60;3.60;;;;;;;;;;5067123;28;24438;-45
2022/05/16 11:39:32;;;;;;;4.70;3.70;;;;;;;;;;5065013;28;24449;-44
2022/05/16 11:42:05;;;;;;;4.63;3.90;;;;;;;;;;5064970;28;24436;-45
2022/05/16 11:44:36;;;;;;;5.60;3.92;;;;;;;;;;5066763;28;24917;-44
2022/05/16 11:47:16;;;;;;;6.35;4.35;;;;;;;;;;5065209;28;24434;-45
2022/05/16 11:49:44;;;;;;;3.88;3.40;;;;;;;;;;5065990;28;24533;-46
2022/05/16 11:52:28;;;;;;;4.20;3.90;;;;;;;;;;5066303;28;24419;-45
2022/05/16 11:54:56;;;;;;;4.73;4.23;;;;;;;;;;5066110;28;24403;-45
2022/05/16 12:03:05;;;;;;;4.82;4.35;;;;;;;;;;5065827;28;24406;-46
2022/05/16 12:05:32;;;;;;;4.22;3.83;;;;;;;;;;5066577;28;24490;-45
2022/05/16 12:08:13;;;;;;;5.30;4.10;;;;;;;;;;5066228;28;24386;-45
2022/05/16 12:10:53;;;;;;;4.25;3.80;;;;;;;;;;5065468;28;24863;-44
2022/05/16 12:13:24;;;;;;;5.63;3.80;;;;;;;;;;5066435;28;24480;-45
2022/05/16 12:16:09;;;;;;;4.30;3.90;;;;;;;;;;5065828;28;24866;-45
2022/05/16 12:18:38;;;;;;;6.68;4.10;;;;;;;;;;5054828;28;24552;-45
2022/05/16 12:21:03;;;;;;;5.90;4.20;;;;;;;;;;5065896;28;24409;-44
2022/05/16 12:23:55;;;;;;;4.35;3.90;;;;;;;;;;5064690;28;24427;-45
2022/05/16 12:26:26;;;;;;;5.15;3.70;;;;;;;;;;5063315;28;24963;-45
2022/05/16 12:29:14;;;;;;;5.00;3.92;;;;;;;;;;5066233;28;24407;-45
2022/05/16 12:31:45;;;;;;;4.93;3.80;;;;;;;;;;5055592;28;24849;-45
2022/05/16 12:34:11;;;;;;;4.60;3.90;;;;;;;;;;5067854;28;24402;-45
2022/05/16 12:36:37;;;;;;;4.43;3.70;;;;;;;;;;5068071;28;24856;-45
2022/05/16 12:39:14;;;;;;;5.50;3.50;;;;;;;;;;5070371;28;25088;-44
2022/05/16 12:41:51;;;;;;;5.63;4.03;;;;;;;;;;5069301;28;24406;-45
2022/05/16 12:44:31;;;;;;;5.43;4.00;;;;;;;;;;5069827;28;24405;-45
2022/05/16 12:47:08;;;;;;;4.68;4.00;;;;;;;;;;5070010;28;24801;-45
2022/05/16 12:49:44;;;;;;;4.28;3.70;;;;;;;;;;5068836;28;24533;-45
2022/05/16 12:52:28;;;;;;;4.45;3.70;;;;;;;;;;5080099;28;24440;-45
2022/05/16 12:55:11;;;;;;;5.40;4.10;;;;;;;;;;5084065;28;24520;-45
2022/05/16 12:57:51;;;;;;;4.38;3.70;;;;;;;;;;5089492;28;24414;-45
2022/05/16 13:00:19;;;;;;;4.22;3.83;;;;;;;;;;5089557;28;24939;-45
2022/05/16 13:03:03;;;;;;;4.72;3.80;;;;;;;;;;5089927;28;24398;-45
2022/05/16 13:05:28;;;;;;;5.38;3.85;;;;;;;;;;5086568;28;24426;-45
2022/05/16 13:08:05;;;;;;;6.77;3.70;;;;;;;;;;5089863;28;24493;-45
2022/05/16 13:10:31;;;;;;;6.00;3.90;;;;;;;;;;5089324;28;24473;-45
2022/05/16 13:13:09;;;;;;;4.93;3.70;;;;;;;;;;5089286;28;24481;-46
2022/05/16 13:15:46;;;;;;;7.32;4.10;;;;;;;;;;5084038;28;24812;-46
2022/05/16 13:18:16;;;;;;;5.23;4.10;;;;;;;;;;5089472;28;24404;-45
2022/05/16 13:20:44;;;;;;;4.15;3.38;;;;;;;;;;5089208;28;24402;-45
2022/05/16 13:23:09;;;;;;;4.50;3.70;;;;;;;;;;5089275;28;24555;-45
2022/05/16 13:29:21;;;;;;;5.00;3.90;;;;;;;;;;5083751;28;24426;-44
2022/05/16 13:31:04;;;;;;;4.67;3.80;;;;;;;;;;5080804;28;24496;-45
2022/05/16 13:33:34;;;;;;;6.10;3.92;;;;;;;;;;5085990;28;26281;-45
2022/05/16 13:36:21;;;;;;;4.13;3.70;;;;;;;;;;5068287;28;24401;-44
2022/05/16 13:39:00;;;;;;;6.85;4.10;;;;;;;;;;5068241;28;24409;-44
2022/05/16 13:41:26;;;;;;;4.40;3.70;;;;;;;;;;5060993;28;25067;-45
2022/05/16 13:43:51;;;;;;;5.20;3.63;;;;;;;;;;5055705;28;24476;-45
2022/05/16 13:46:17;;;;;;;5.20;3.90;;;;;;;;;;5067141;28;24449;-45
2022/05/16 13:48:42;;;;;;;5.90;4.07;;;;;;;;;;5056227;28;24494;-45
2022/05/16 13:51:08;;;;;;;4.87;3.60;;;;;;;;;;5047948;28;24426;-45
2022/05/16 13:53:33;;;;;;;6.03;4.03;;;;;;;;;;5060720;28;24512;-45
2022/05/16 13:55:58;;;;;;;3.95;3.55;;;;;;;;;;5066828;28;24426;-45
2022/05/16 13:58:28;;;;;;;6.23;4.50;;;;;;;;;;5054922;28;24949;-45
2022/05/16 14:01:23;;;;;;;4.38;3.83;;;;;;;;;;5072055;28;24495;-45
2022/05/16 14:03:55;;;;;;;4.57;4.00;;;;;;;;;;5047950;28;24443;-45
2022/05/16 14:06:30;;;;;;;5.03;3.85;;;;;;;;;;5075862;28;24433;-45
2022/05/16 14:09:01;;;;;;;5.40;3.80;;;;;;;;;;5053531;28;24426;-45
2022/05/16 14:11:27;;;;;;;5.82;3.70;;;;;;;;;;5049415;28;24960;-45
2022/05/16 14:13:54;;;;;;;4.25;3.85;;;;;;;;;;5063397;28;24979;-45
2022/05/16 14:16:21;;;;;;;4.35;3.70;;;;;;;;;;5065029;28;24446;-45
2022/05/16 14:18:51;;;;;;;4.57;3.85;;;;;;;;;;5070670;28;24487;-45
2022/05/16 14:21:16;;;;;;;3.80;3.10;;;;;;;;;;5080725;28;24472;-45
2022/05/16 14:23:43;;;;;;;3.78;3.47;;;;;;;;;;5051030;28;24433;-45
2022/05/16 14:26:19;;;;;;;3.88;3.58;;;;;;;;;;5066466;28;24407;-45
2022/05/16 14:28:47;;;;;;;3.97;3.58;;;;;;;;;;5075031;28;24423;-46
2022/05/16 14:31:18;;;;;;;4.23;3.83;;;;;;;;;;5076036;28;24446;-45
2022/05/16 14:33:49;;;;;;;4.40;4.00;;;;;;;;;;5047101;28;24429;-45
2022/05/16 14:36:22;;;;;;;4.10;3.70;;;;;;;;;;5071070;28;24426;-45
2022/05/16 14:38:49;;;;;;;4.30;3.70;;;;;;;;;;5085581;28;24532;-45
2022/05/16 14:41:16;;;;;;;4.25;3.50;;;;;;;;;;5076949;28;24422;-45
2022/05/16 14:43:53;;;;;;;4.10;3.70;;;;;;;;;;5084020;28;24441;-45
2022/05/16 14:49:03;;;;;;;4.32;3.60;;;;;;;;;;5065007;28;24425;-45
2022/05/16 14:51:28;;;;;;;4.97;3.88;;;;;;;;;;5073616;28;24422;-45
2022/05/16 14:53:54;;;;;;;4.22;3.80;;;;;;;;;;5077479;28;24990;-44
2022/05/16 14:56:19;;;;;;;4.40;3.80;;;;;;;;;;5080548;28;24490;-45
2022/05/16 14:58:44;;;;;;;4.03;3.60;;;;;;;;;;5079975;28;24414;-45
2022/05/16 15:04:03;;;;;;;4.45;3.70;;;;;;;;;;5069683;28;24505;-45
2022/05/16 15:06:28;;;;;;;3.95;3.65;;;;;;;;;;5074908;28;24514;-45
2022/05/16 15:08:55;;;;;;;4.10;3.70;;;;;;;;;;5080743;28;24550;-45
2022/05/16 15:11:22;;;;;;;3.70;3.40;;;;;;;;;;5084808;28;24683;-45
2022/05/16 15:13:47;;;;;;;3.67;3.30;;;;;;;;;;5075646;28;24426;-45
2022/05/16 15:16:13;;;;;;;4.00;3.60;;;;;;;;;;5083361;28;24425;-45
2022/05/16 15:18:38;;;;;;;4.30;3.90;;;;;;;;;;5078395;28;24411;-45
2022/05/16 15:21:04;;;;;;;4.07;3.75;;;;;;;;;;5061175;28;24794;-45
2022/05/16 15:23:30;;;;;;;4.10;3.70;;;;;;;;;;5061464;28;24819;-45
2022/05/16 15:25:55;;;;;;;5.00;4.00;;;;;;;;;;5048155;28;25087;-45
2022/05/16 15:28:20;;;;;;;4.47;4.07;;;;;;;;;;5059344;28;24430;-45
2022/05/16 15:30:46;;;;;;;4.90;3.60;;;;;;;;;;5044603;28;24498;-45
2022/05/16 15:33:14;;;;;;;4.60;3.37;;;;;;;;;;5052715;28;24564;-43